Time;durP1;ratioP1;P1;durP2;ratioP2;P2;SDS_P1;SDS_P2;PMS_P1;PMS_P2;Temp;Humidity;BMP_temperature;BMP_pressure;BME280_temperature;BME280_humidity;BME280_pressure;Samples;Min_cycle;Max_cycle;Signal;HPM_P1;HPM_P2
2023/03/31 00:00:31;;;;;;;21.05;8.98;;;14.00;83.10;;;;;;4993037;28;20274;-73
2023/03/31 00:03:01;;;;;;;18.02;9.02;;;14.00;67.40;;;;;;4992944;28;20084;-75
2023/03/31 00:05:29;;;;;;;22.45;9.38;;;14.00;59.50;;;;;;4974819;28;20101;-72
2023/03/31 00:08:00;;;;;;;25.23;12.30;;;14.00;53.30;;;;;;4991996;28;20046;-72
2023/03/31 00:10:28;;;;;;;29.73;14.73;;;13.90;93.70;;;;;;4994407;28;20062;-74
2023/03/31 00:12:55;;;;;;;29.02;16.30;;;13.90;99.90;;;;;;4991423;28;20415;-73
2023/03/31 00:15:23;;;;;;;25.15;13.50;;;13.90;99.90;;;;;;4991509;28;20050;-72
2023/03/31 00:17:50;;;;;;;25.88;14.65;;;13.90;99.90;;;;;;4991477;28;20062;-72
2023/03/31 00:20:19;;;;;;;29.50;16.80;;;13.80;99.90;;;;;;4993196;28;20046;-73
2023/03/31 00:22:47;;;;;;;30.52;17.88;;;13.80;99.90;;;;;;4986324;28;20050;-73
2023/03/31 00:25:15;;;;;;;35.70;19.08;;;13.70;1.00;;;;;;5006733;28;20050;-72
2023/03/31 00:27:44;;;;;;;34.65;18.65;;;13.70;1.00;;;;;;4990086;28;20053;-73
2023/03/31 00:30:13;;;;;;;31.25;18.15;;;13.60;1.00;;;;;;4996559;28;20099;-73
2023/03/31 00:32:40;;;;;;;32.15;18.58;;;13.60;99.90;;;;;;4998946;28;20050;-74
2023/03/31 00:35:08;;;;;;;31.85;18.42;;;13.50;99.90;;;;;;4976807;28;20061;-73
2023/03/31 00:37:37;;;;;;;30.58;18.13;;;13.50;99.90;;;;;;4975008;28;20050;-72
2023/03/31 00:40:08;;;;;;;35.63;20.02;;;13.50;1.00;;;;;;4974518;28;20711;-73
2023/03/31 00:42:40;;;;;;;30.73;18.38;;;13.50;1.00;;;;;;4977313;28;20581;-73
2023/03/31 00:45:28;;;;;;;35.75;21.02;;;13.40;99.90;;;;;;4977091;28;20553;-73
2023/03/31 00:48:02;;;;;;;34.55;20.65;;;13.40;99.90;;;;;;4977562;28;20180;-73
2023/03/31 00:50:34;;;;;;;34.53;20.75;;;13.30;1.00;;;;;;4997132;28;20043;-73
2023/03/31 00:53:08;;;;;;;34.90;20.13;;;13.30;1.00;;;;;;4994538;28;20042;-73
2023/03/31 00:55:41;;;;;;;39.45;22.33;;;13.30;1.00;;;;;;4993154;28;20042;-72
2023/03/31 00:58:13;;;;;;;36.92;23.02;;;13.30;99.90;;;;;;4977352;28;20061;-73
2023/03/31 01:00:40;;;;;;;37.05;20.95;;;13.20;99.90;;;;;;4976203;28;20061;-73
2023/03/31 01:03:10;;;;;;;32.25;20.13;;;13.20;1.00;;;;;;4994423;28;20556;-74
2023/03/31 01:05:43;;;;;;;35.92;18.65;;;13.20;99.90;;;;;;4976854;28;20057;-74
2023/03/31 01:08:12;;;;;;;28.58;17.33;;;13.20;99.90;;;;;;4993421;28;20053;-73
2023/03/31 01:10:43;;;;;;;28.33;17.20;;;13.10;99.90;;;;;;4993456;28;20570;-72
2023/03/31 01:13:15;;;;;;;31.73;16.63;;;13.00;99.90;;;;;;4972238;28;20137;-73
2023/03/31 01:15:43;;;;;;;28.88;17.33;;;13.00;99.90;;;;;;4974473;28;20050;-73
2023/03/31 01:18:11;;;;;;;28.80;17.33;;;13.00;22.20;;;;;;5004907;23;20050;-76
2023/03/31 01:21:02;;;;;;;27.55;15.82;;;13.00;1.00;;;;;;4987609;28;20415;-75
2023/03/31 01:24:07;;;;;;;27.40;15.90;;;12.90;1.00;;;;;;4968636;28;20031;-76
2023/03/31 01:27:01;;;;;;;31.92;16.52;;;12.90;99.90;;;;;;5001437;28;20122;-76
2023/03/31 01:30:05;;;;;;;30.90;17.25;;;12.90;1.00;;;;;;4978384;28;20247;-76
2023/03/31 01:33:13;;;;;;;26.67;13.80;;;12.90;1.00;;;;;;4974927;28;20050;-74
2023/03/31 01:35:55;;;;;;;;;;;12.80;1.00;;;;;;4984356;28;20407;-77
2023/03/31 01:39:07;;;;;;;29.73;15.43;;;12.80;99.90;;;;;;4966329;28;19957;-78
2023/03/31 01:41:55;;;;;;;30.92;16.17;;;12.90;99.90;;;;;;4977755;28;20406;-75
2023/03/31 01:44:32;;;;;;;38.47;20.08;;;13.00;1.00;;;;;;4976039;28;20118;-77
2023/03/31 01:47:07;;;;;;;32.47;15.55;;;13.00;99.90;;;;;;4982193;28;20061;-77
2023/03/31 01:49:41;;;;;;;32.75;18.05;;;12.90;99.90;;;;;;4977671;28;20051;-75
2023/03/31 01:52:18;;;;;;;54.72;31.67;;;12.90;1.00;;;;;;4977436;28;20110;-75
2023/03/31 01:54:50;;;;;;;28.98;14.07;;;12.80;1.00;;;;;;4980980;28;20069;-77
2023/03/31 01:57:25;;;;;;;28.05;12.82;;;12.70;1.00;;;;;;4981775;28;20514;-76
2023/03/31 02:00:02;;;;;;;28.38;13.40;;;12.80;1.00;;;;;;4983994;28;20045;-76
2023/03/31 02:02:48;;;;;;;24.67;13.50;;;12.70;1.00;;;;;;4990337;28;20043;-75
2023/03/31 02:05:20;;;;;;;27.70;14.18;;;12.70;99.90;;;;;;4965231;28;20134;-76
2023/03/31 02:07:54;;;;;;;26.40;13.70;;;12.70;99.90;;;;;;4986570;28;20105;-79
2023/03/31 02:10:23;;;;;;;24.90;13.82;;;12.70;99.90;;;;;;4972011;28;20573;-77
2023/03/31 02:12:55;;;;;;;33.22;14.73;;;12.70;99.90;;;;;;4983424;28;20050;-77
2023/03/31 02:15:28;;;;;;;27.50;14.25;;;12.70;1.00;;;;;;4980446;28;20053;-77
2023/03/31 02:17:59;;;;;;;37.03;19.88;;;12.80;1.00;;;;;;4986595;28;20062;-78
2023/03/31 02:20:31;;;;;;;72.75;38.10;;;12.80;1.00;;;;;;5013436;28;20096;-77
2023/03/31 02:22:59;;;;;;;82.28;40.55;;;12.80;90.60;;;;;;5000701;28;20183;-77
2023/03/31 02:25:34;;;;;;;47.53;23.80;;;12.80;99.90;;;;;;4979813;28;20069;-76
2023/03/31 02:28:08;;;;;;;45.15;23.58;;;12.80;99.90;;;;;;4996290;28;20053;-75
2023/03/31 02:30:42;;;;;;;42.92;21.92;;;12.70;99.90;;;;;;4976980;28;20092;-75
2023/03/31 02:33:10;;;;;;;28.08;15.00;;;12.70;1.00;;;;;;4978295;28;20100;-75
2023/03/31 02:35:37;;;;;;;23.33;12.65;;;12.70;99.90;;;;;;4976231;28;20487;-74
2023/03/31 02:38:05;;;;;;;33.67;17.05;;;12.60;99.90;;;;;;4976125;28;20435;-75
2023/03/31 02:40:33;;;;;;;28.67;16.05;;;12.60;99.90;;;;;;4985184;28;20735;-75
2023/03/31 02:43:02;;;;;;;28.77;14.55;;;12.60;99.90;;;;;;4976494;28;20052;-76
2023/03/31 02:45:45;;;;;;;25.75;13.55;;;12.60;99.90;;;;;;4975988;28;20549;-78
2023/03/31 02:48:17;;;;;;;32.10;15.07;;;12.50;1.00;;;;;;4997336;28;20124;-76
2023/03/31 02:51:07;;;;;;;31.30;14.80;;;12.50;1.00;;;;;;4998218;28;20046;-76
2023/03/31 02:53:44;;;;;;;29.05;14.32;;;12.40;1.00;;;;;;4980199;28;20046;-76
2023/03/31 02:56:32;;;;;;;30.55;15.77;;;12.30;1.00;;;;;;4982940;28;20053;-77
2023/03/31 02:59:18;;;;;;;31.27;17.58;;;12.30;45.30;;;;;;4978384;28;20549;-78
2023/03/31 03:02:02;;;;;;;28.58;16.77;;;12.30;99.90;;;;;;4989314;28;20046;-77
2023/03/31 03:04:40;;;;;;;31.08;15.82;;;12.10;1.00;;;;;;4987899;28;20117;-75
2023/03/31 03:07:16;;;;;;;24.25;15.10;;;12.00;1.00;;;;;;5007544;28;20123;-76
2023/03/31 03:09:57;;;;;;;28.58;14.70;;;11.90;1.00;;;;;;4980232;28;20073;-76
2023/03/31 03:12:29;;;;;;;29.75;15.93;;;11.80;1.00;;;;;;4997222;28;20050;-76
2023/03/31 03:15:04;;;;;;;27.25;14.90;;;11.70;1.00;;;;;;4995344;28;20038;-77
2023/03/31 03:17:39;;;;;;;24.95;14.25;;;11.60;1.00;;;;;;4981997;28;20062;-75
2023/03/31 03:20:08;;;;;;;23.42;13.95;;;11.50;1.00;;;;;;4997701;28;20044;-77
2023/03/31 03:22:36;;;;;;;29.67;12.98;;;11.40;99.90;;;;;;4995399;28;20117;-75
2023/03/31 03:25:04;;;;;;;27.35;14.45;;;11.50;1.00;;;;;;4994004;28;20043;-76
2023/03/31 03:27:32;;;;;;;29.55;16.42;;;11.40;1.00;;;;;;4995832;28;20482;-78
2023/03/31 03:30:01;;;;;;;43.72;21.05;;;11.30;1.00;;;;;;5012320;28;20121;-77
2023/03/31 03:32:28;;;;;;;38.40;21.30;;;11.30;1.00;;;;;;5016439;28;20060;-77
2023/03/31 03:34:56;;;;;;;44.65;24.23;;;11.20;1.00;;;;;;5016534;28;20046;-77
2023/03/31 03:37:23;;;;;;;28.83;18.35;;;11.10;1.00;;;;;;4999235;28;20050;-77
2023/03/31 03:39:51;;;;;;;31.38;16.67;;;11.10;1.00;;;;;;4992852;28;20058;-75
2023/03/31 03:42:18;;;;;;;29.23;14.80;;;11.10;1.00;;;;;;4995624;28;20045;-74
2023/03/31 03:44:46;;;;;;;23.95;13.15;;;11.10;1.00;;;;;;4993467;28;20046;-75
2023/03/31 03:47:15;;;;;;;33.33;15.27;;;11.10;1.00;;;;;;4993215;28;20112;-75
2023/03/31 03:49:42;;;;;;;30.02;16.95;;;11.00;1.00;;;;;;4991439;28;20050;-75
2023/03/31 03:52:10;;;;;;;34.33;17.10;;;11.00;1.00;;;;;;4993019;28;20052;-74
2023/03/31 03:54:37;;;;;;;29.48;15.13;;;11.00;1.00;;;;;;4994197;28;20043;-74
2023/03/31 03:57:06;;;;;;;31.23;15.55;;;11.10;1.00;;;;;;4996780;28;20548;-74
2023/03/31 03:59:33;;;;;;;27.48;15.27;;;11.00;1.00;;;;;;4991380;28;20100;-74
2023/03/31 04:02:01;;;;;;;23.90;13.18;;;10.90;1.00;;;;;;4992812;28;20034;-75
2023/03/31 04:04:30;;;;;;;26.35;11.68;;;10.80;1.00;;;;;;4991984;28;20387;-75
2023/03/31 04:06:57;;;;;;;25.05;12.07;;;10.80;1.00;;;;;;5000519;28;20152;-75
2023/03/31 04:09:25;;;;;;;23.40;12.00;;;10.90;1.00;;;;;;4997036;28;20040;-74
2023/03/31 04:11:52;;;;;;;33.92;13.80;;;10.80;1.00;;;;;;5001922;28;20039;-77
2023/03/31 04:14:20;;;;;;;28.58;14.70;;;10.90;1.00;;;;;;4997046;28;20043;-76
2023/03/31 04:16:47;;;;;;;24.50;11.77;;;10.90;1.00;;;;;;4997572;28;20112;-75
2023/03/31 04:19:16;;;;;;;27.20;12.90;;;10.90;1.00;;;;;;4999547;28;20057;-75
2023/03/31 04:21:49;;;;;;;26.63;13.82;;;10.90;1.00;;;;;;5000950;28;20049;-74
2023/03/31 04:24:21;;;;;;;23.30;12.00;;;10.90;1.00;;;;;;5001758;28;20073;-75
2023/03/31 04:26:49;;;;;;;24.00;10.65;;;10.80;1.00;;;;;;4980823;28;20442;-75
2023/03/31 04:29:19;;;;;;;26.17;11.13;;;10.80;1.00;;;;;;4992463;28;20522;-74
2023/03/31 04:31:46;;;;;;;19.27;9.70;;;10.70;1.00;;;;;;5006281;28;20041;-76
2023/03/31 04:34:15;;;;;;;29.45;13.10;;;10.70;1.00;;;;;;5022009;28;20119;-75
2023/03/31 04:36:46;;;;;;;30.95;13.23;;;10.70;1.00;;;;;;5019841;28;20110;-78
2023/03/31 04:39:15;;;;;;;43.75;17.63;;;10.60;1.00;;;;;;5016906;28;20105;-76
2023/03/31 04:41:43;;;;;;;47.88;20.95;;;10.60;1.00;;;;;;5001671;28;20045;-77
2023/03/31 04:44:10;;;;;;;48.28;20.25;;;10.60;1.00;;;;;;5001372;28;20047;-76
2023/03/31 04:46:39;;;;;;;50.28;20.05;;;10.60;1.00;;;;;;5005464;28;20421;-75
2023/03/31 04:49:06;;;;;;;41.35;17.85;;;10.60;1.00;;;;;;4988926;28;20473;-76
2023/03/31 04:51:35;;;;;;;44.78;20.45;;;10.60;1.00;;;;;;4991230;28;20089;-75
2023/03/31 04:54:04;;;;;;;47.47;20.33;;;10.70;1.00;;;;;;4994628;28;20045;-75
2023/03/31 04:56:32;;;;;;;58.75;23.92;;;10.70;1.00;;;;;;4996165;28;20050;-76
2023/03/31 04:59:00;;;;;;;48.63;22.25;;;10.70;1.00;;;;;;4998238;28;20105;-76
2023/03/31 05:01:31;;;;;;;49.60;23.20;;;10.70;1.00;;;;;;5006304;28;20069;-77
2023/03/31 05:04:00;;;;;;;64.72;27.40;;;10.70;1.00;;;;;;5006954;28;20073;-77
2023/03/31 05:06:27;;;;;;;62.67;28.30;;;10.70;1.00;;;;;;5016145;28;20517;-76
2023/03/31 05:08:55;;;;;;;63.95;26.48;;;10.80;1.00;;;;;;5011286;28;20042;-78
2023/03/31 05:11:24;;;;;;;65.22;27.70;;;10.90;1.00;;;;;;4993721;28;20069;-79
2023/03/31 05:13:52;;;;;;;61.47;26.35;;;10.90;1.00;;;;;;4999396;28;20059;-76
2023/03/31 05:16:20;;;;;;;57.05;25.73;;;11.10;1.00;;;;;;5009084;28;20116;-77
2023/03/31 05:18:47;;;;;;;40.90;18.80;;;11.10;1.00;;;;;;5017055;28;20078;-76
2023/03/31 05:21:17;;;;;;;46.20;21.70;;;11.20;99.90;;;;;;5016731;28;20058;-76
2023/03/31 05:23:45;;;;;;;50.35;23.10;;;11.20;87.00;;;;;;5011081;28;20102;-76
2023/03/31 05:26:13;;;;;;;48.75;23.10;;;11.30;98.70;;;;;;5012715;28;20825;-78
2023/03/31 05:28:43;;;;;;;54.17;27.20;;;11.30;1.00;;;;;;4986716;28;20148;-76
2023/03/31 05:31:11;;;;;;;50.42;23.52;;;11.40;1.00;;;;;;4998513;28;20046;-75
2023/03/31 05:33:40;;;;;;;61.33;29.50;;;11.40;1.00;;;;;;5002623;28;20038;-77
2023/03/31 05:36:10;;;;;;;63.10;28.67;;;11.40;1.00;;;;;;5011225;28;20077;-76
2023/03/31 05:38:37;;;;;;;57.85;28.65;;;11.40;1.00;;;;;;5014631;28;20042;-75
2023/03/31 05:41:05;;;;;;;60.75;32.47;;;11.50;1.00;;;;;;5014841;28;20050;-78
2023/03/31 05:43:32;;;;;;;57.72;32.38;;;11.50;7.20;;;;;;5016710;28;20081;-76
2023/03/31 05:46:02;;;;;;;58.65;29.65;;;11.60;99.90;;;;;;5015498;28;20034;-77
2023/03/31 05:48:29;;;;;;;59.25;30.63;;;11.70;1.00;;;;;;4995816;28;20100;-78
2023/03/31 05:50:58;;;;;;;56.22;30.85;;;11.90;1.00;;;;;;4998640;28;20034;-78
2023/03/31 05:53:26;;;;;;;58.72;32.38;;;12.00;1.00;;;;;;5018709;28;20049;-76
2023/03/31 05:55:58;;;;;;;45.58;24.00;;;12.10;1.00;;;;;;5017202;28;20101;-81
2023/03/31 05:58:27;;;;;;;49.08;24.05;;;12.10;99.90;;;;;;5016787;28;20062;-79
2023/03/31 06:01:05;;;;;;;57.33;31.88;;;12.20;1.00;;;;;;4991821;28;20122;-78
2023/03/31 06:03:33;;;;;;;42.08;21.83;;;12.40;1.00;;;;;;5008152;28;20068;-76
2023/03/31 06:06:01;;;;;;;45.80;27.10;;;12.40;1.00;;;;;;5013969;28;20042;-77
2023/03/31 06:08:29;;;;;;;49.10;27.90;;;12.40;99.90;;;;;;5008005;28;20073;-76
2023/03/31 06:10:57;;;;;;;48.15;27.88;;;12.60;1.00;;;;;;5012535;28;20066;-77
2023/03/31 06:13:25;;;;;;;44.13;26.73;;;12.80;99.90;;;;;;5007632;28;20042;-77
2023/03/31 06:15:56;;;;;;;54.03;28.40;;;12.90;1.00;;;;;;4990156;28;20042;-79
2023/03/31 06:18:27;;;;;;;45.65;25.45;;;13.00;99.90;;;;;;5002325;28;20058;-77
2023/03/31 06:20:55;;;;;;;46.15;24.65;;;13.10;1.00;;;;;;4993364;28;20049;-77
2023/03/31 06:23:22;;;;;;;38.67;21.67;;;13.20;99.90;;;;;;5008277;28;20034;-77
2023/03/31 06:25:50;;;;;;;39.70;19.20;;;13.30;99.90;;;;;;4991558;28;20070;-79
2023/03/31 06:28:19;;;;;;;39.75;22.42;;;13.60;1.00;;;;;;4995819;28;20077;-79
2023/03/31 06:30:47;;;;;;;37.47;22.23;;;13.90;1.00;;;;;;5003004;28;20130;-78
2023/03/31 06:33:15;;;;;;;42.60;23.45;;;14.20;99.90;;;;;;5010474;28;20045;-78
2023/03/31 06:35:44;;;;;;;51.28;29.27;;;14.70;99.90;;;;;;4995688;28;20078;-78
2023/03/31 06:38:12;;;;;;;37.83;22.13;;;15.10;99.90;;;;;;5018997;28;20034;-78
2023/03/31 06:40:40;;;;;;;42.03;22.88;;;15.60;43.70;;;;;;5014837;28;20111;-77
2023/03/31 06:43:10;;;;;;;42.55;22.67;;;15.70;1.00;;;;;;5015207;28;20077;-80
2023/03/31 06:45:38;;;;;;;39.50;23.00;;;15.70;1.00;;;;;;5016555;28;20046;-80
2023/03/31 06:48:07;;;;;;;37.60;20.92;;;15.60;1.00;;;;;;5019375;28;20045;-79
2023/03/31 06:50:37;;;;;;;33.58;19.98;;;15.50;1.00;;;;;;5013070;28;20133;-78
2023/03/31 06:53:07;;;;;;;35.25;20.55;;;15.30;1.00;;;;;;4999674;28;20568;-78
2023/03/31 06:55:39;;;;;;;37.00;19.55;;;15.40;1.00;;;;;;4978277;28;20236;-79
2023/03/31 06:58:07;;;;;;;32.03;18.00;;;15.50;1.00;;;;;;4998675;28;20045;-82
2023/03/31 07:00:34;;;;;;;34.72;19.63;;;15.50;1.00;;;;;;4986214;28;20042;-79
2023/03/31 07:03:02;;;;;;;32.20;17.55;;;15.30;1.00;;;;;;4981405;28;20042;-79
2023/03/31 07:05:33;;;;;;;31.35;17.42;;;15.20;1.00;;;;;;4979406;28;20046;-80
2023/03/31 07:08:01;;;;;;;32.28;18.02;;;15.20;1.00;;;;;;4997730;28;20050;-78
2023/03/31 07:10:33;;;;;;;25.80;13.73;;;15.60;1.00;;;;;;5002348;28;20057;-79
2023/03/31 07:13:01;;;;;;;29.83;14.98;;;15.80;1.00;;;;;;5022835;28;20034;-78
2023/03/31 07:15:32;;;;;;;25.90;15.48;;;15.80;1.00;;;;;;4999371;28;20473;-78
2023/03/31 07:18:08;;;;;;;30.17;14.50;;;15.90;1.00;;;;;;4998766;28;20042;-80
2023/03/31 07:20:38;;;;;;;28.38;14.48;;;16.00;1.00;;;;;;5009915;23;20049;-74
2023/03/31 07:23:07;;;;;;;25.45;13.60;;;16.20;1.00;;;;;;5023067;28;20068;-75
2023/03/31 07:25:35;;;;;;;25.98;14.20;;;16.30;1.00;;;;;;5024113;28;20054;-75
2023/03/31 07:28:04;;;;;;;25.38;14.02;;;16.30;1.00;;;;;;5005432;28;20606;-74
2023/03/31 07:30:32;;;;;;;25.92;13.60;;;16.60;1.00;;;;;;5023499;28;20045;-74
2023/03/31 07:33:00;;;;;;;22.40;13.07;;;16.90;1.00;;;;;;5023084;28;20445;-76
2023/03/31 07:35:28;;;;;;;16.90;10.85;;;17.10;1.00;;;;;;5022977;28;20038;-75
2023/03/31 07:37:55;;;;;;;20.13;10.40;;;17.10;1.00;;;;;;5021361;28;20088;-76
2023/03/31 07:40:26;;;;;;;18.48;10.00;;;17.20;1.00;;;;;;5002797;28;20099;-76
2023/03/31 07:42:55;;;;;;;25.55;12.13;;;17.40;1.00;;;;;;5011392;28;20221;-75
2023/03/31 07:45:25;;;;;;;23.05;10.57;;;17.80;1.00;;;;;;5024025;28;20132;-75
2023/03/31 07:47:53;;;;;;;25.67;12.88;;;18.00;1.00;;;;;;5005472;28;20420;-76
2023/03/31 07:50:22;;;;;;;24.75;13.73;;;18.00;1.00;;;;;;5025482;28;20049;-75
2023/03/31 07:52:52;;;;;;;24.50;11.32;;;18.00;1.00;;;;;;5008345;28;20061;-75
2023/03/31 07:55:20;;;;;;;20.35;10.93;;;18.20;1.00;;;;;;5025437;28;20061;-75
2023/03/31 07:57:47;;;;;;;23.42;13.30;;;18.50;1.00;;;;;;5005723;28;20041;-74
2023/03/31 08:00:18;;;;;;;25.83;13.43;;;18.70;1.00;;;;;;5024071;28;20041;-75
2023/03/31 08:02:45;;;;;;;24.52;12.05;;;18.90;1.00;;;;;;5027775;28;20052;-74
2023/03/31 08:05:14;;;;;;;23.75;12.02;;;19.00;1.00;;;;;;5025304;28;20038;-75
2023/03/31 08:07:43;;;;;;;20.60;11.90;;;18.90;1.00;;;;;;5026726;28;20064;-75
2023/03/31 08:10:12;;;;;;;22.70;12.00;;;18.90;1.00;;;;;;5008453;28;20214;-74
2023/03/31 08:12:40;;;;;;;21.75;11.55;;;19.10;1.00;;;;;;5018738;28;20056;-74
2023/03/31 08:15:08;;;;;;;18.63;12.18;;;19.30;1.00;;;;;;5037504;28;20504;-74
2023/03/31 08:17:37;;;;;;;21.63;10.63;;;19.50;1.00;;;;;;5030871;28;20075;-76
2023/03/31 08:20:07;;;;;;;23.67;12.25;;;19.60;1.00;;;;;;5018575;28;20429;-75
2023/03/31 08:22:34;;;;;;;25.98;12.80;;;19.70;1.00;;;;;;4990428;28;20077;-76
2023/03/31 08:25:02;;;;;;;18.02;9.25;;;19.80;1.00;;;;;;5001168;28;20037;-75
2023/03/31 08:27:32;;;;;;;17.55;9.35;;;19.90;1.00;;;;;;5026427;28;20044;-75
2023/03/31 08:30:02;;;;;;;20.85;12.05;;;20.20;1.00;;;;;;5022468;28;20047;-75
2023/03/31 08:32:29;;;;;;;12.93;6.82;;;20.60;1.00;;;;;;5021375;28;20501;-74
2023/03/31 08:34:58;;;;;;;15.52;8.75;;;20.80;1.00;;;;;;5025844;28;20417;-74
2023/03/31 08:37:27;;;;;;;14.23;8.50;;;20.90;1.00;;;;;;5007962;28;20045;-74
2023/03/31 08:39:54;;;;;;;12.57;5.38;;;21.00;1.00;;;;;;5005985;28;20135;-75
2023/03/31 08:42:34;;;;;;;12.57;5.40;;;20.60;1.00;;;;;;5015289;28;20401;-75
2023/03/31 08:45:06;;;;;;;13.98;5.45;;;20.30;1.00;;;;;;5017257;28;20508;-75
2023/03/31 08:47:37;;;;;;;10.00;3.83;;;20.10;1.00;;;;;;5013141;28;20409;-75
2023/03/31 08:50:11;;;;;;;11.20;6.72;;;20.00;1.00;;;;;;5001009;28;20037;-74
2023/03/31 08:52:42;;;;;;;12.75;4.30;;;20.10;1.00;;;;;;5021577;28;20038;-74
2023/03/31 08:55:16;;;;;;;5.88;2.88;;;19.90;1.00;;;;;;5018368;28;20053;-75
2023/03/31 08:57:52;;;;;;;10.55;4.20;;;19.80;1.00;;;;;;5010290;28;20056;-75
2023/03/31 09:00:20;;;;;;;7.38;3.97;;;19.90;1.00;;;;;;5020044;28;20049;-74
2023/03/31 09:02:55;;;;;;;9.57;5.10;;;19.90;1.00;;;;;;5025627;28;20045;-79
2023/03/31 09:05:45;;;;;;;9.00;3.00;;;19.90;1.00;;;;;;4994267;28;20140;-75
2023/03/31 09:08:20;;;;;;;12.90;5.72;;;19.70;1.00;;;;;;5006558;28;20413;-74
2023/03/31 09:10:55;;;;;;;11.02;4.95;;;19.70;1.00;;;;;;5020556;28;20050;-75
2023/03/31 09:13:50;;;;;;;11.98;3.38;;;19.70;1.00;;;;;;5014291;28;20095;-75
2023/03/31 09:16:23;;;;;;;5.57;3.25;;;19.90;1.00;;;;;;5013966;28;20045;-74
2023/03/31 09:18:52;;;;;;;11.90;3.20;;;19.90;1.00;;;;;;5011505;28;20050;-75
2023/03/31 09:21:27;;;;;;;8.25;4.50;;;20.00;1.00;;;;;;5049197;28;20052;-76
2023/03/31 09:24:03;;;;;;;12.15;4.95;;;20.10;1.00;;;;;;5038778;28;20052;-73
2023/03/31 09:26:38;;;;;;;7.53;3.13;;;20.40;1.00;;;;;;5040404;28;20055;-74
2023/03/31 09:29:13;;;;;;;12.68;4.30;;;20.50;1.00;;;;;;5042682;28;20057;-85
2023/03/31 09:31:43;;;;;;;13.77;6.03;;;20.30;1.00;;;;;;5039773;28;20041;-75
2023/03/31 09:34:15;;;;;;;11.43;3.50;;;20.50;1.00;;;;;;5038492;28;20037;-75
2023/03/31 09:36:44;;;;;;;10.48;3.60;;;20.50;1.00;;;;;;5038034;28;20662;-75
2023/03/31 09:39:14;;;;;;;11.32;2.60;;;20.30;1.00;;;;;;5037371;28;20056;-76
2023/03/31 09:41:45;;;;;;;9.98;4.30;;;20.00;1.00;;;;;;5016485;28;20072;-75
2023/03/31 09:44:28;;;;;;;9.73;3.90;;;19.80;1.00;;;;;;5038121;28;20139;-75
2023/03/31 09:46:56;;;;;;;9.95;5.13;;;20.00;1.00;;;;;;5015270;28;20132;-74
2023/03/31 09:49:28;;;;;;;10.68;5.13;;;20.00;1.00;;;;;;5039362;28;20099;-75
2023/03/31 09:52:05;;;;;;;13.85;7.00;;;20.20;1.00;;;;;;5039630;28;20136;-75
2023/03/31 09:54:41;;;;;;;8.13;3.67;;;20.30;1.00;;;;;;5039066;28;20041;-75
2023/03/31 09:57:23;;;;;;;6.53;2.60;;;20.20;1.00;;;;;;5040621;28;20527;-76
2023/03/31 10:00:19;;;;;;;8.65;3.40;;;20.20;1.00;;;;;;5041648;28;20059;-76
2023/03/31 10:02:51;;;;;;;15.60;4.30;;;20.00;1.00;;;;;;5042983;28;20092;-75
2023/03/31 10:05:29;;;;;;;11.45;4.32;;;20.10;1.00;;;;;;5041508;28;20045;-75
2023/03/31 10:10:54;;;;;;;9.13;4.80;;;20.10;1.00;;;;;;5067084;27;20387;-74
2023/03/31 10:13:25;;;;;;;11.45;4.13;;;20.00;1.00;;;;;;5061744;28;20056;-75
2023/03/31 10:15:54;;;;;;;9.50;4.13;;;20.10;1.00;;;;;;5059374;28;20102;-75
2023/03/31 10:18:32;;;;;;;10.57;4.13;;;20.20;1.00;;;;;;5056578;28;20113;-72
2023/03/31 10:21:00;;;;;;;10.23;3.83;;;20.20;1.00;;;;;;5064642;28;20045;-75
2023/03/31 10:23:31;;;;;;;8.25;3.20;;;20.10;1.00;;;;;;5063937;28;20412;-74
2023/03/31 10:26:01;;;;;;;11.15;4.45;;;20.00;1.00;;;;;;5064933;28;20124;-74
2023/03/31 10:28:33;;;;;;;10.48;4.90;;;20.00;1.00;;;;;;5061770;28;20043;-74
2023/03/31 10:31:02;;;;;;;10.80;3.10;;;20.10;1.00;;;;;;5062911;28;20048;-76
2023/03/31 10:33:33;;;;;;;6.45;2.83;;;20.00;1.00;;;;;;5061590;28;20102;-75
2023/03/31 10:36:07;;;;;;;9.35;3.55;;;20.10;1.00;;;;;;5063044;28;20107;-73
2023/03/31 10:38:39;;;;;;;8.32;3.55;;;20.10;1.00;;;;;;5061636;28;20485;-74
2023/03/31 10:41:08;;;;;;;8.43;3.50;;;20.10;1.00;;;;;;5060976;28;20075;-74
2023/03/31 10:43:40;;;;;;;10.75;3.83;;;20.20;1.00;;;;;;5065027;28;20048;-75
2023/03/31 10:46:08;;;;;;;7.00;2.78;;;20.30;1.00;;;;;;5062355;28;20061;-73
2023/03/31 10:48:38;;;;;;;8.93;3.20;;;20.20;1.00;;;;;;5050869;28;20049;-73
2023/03/31 10:51:15;;;;;;;8.80;4.30;;;20.00;1.00;;;;;;5039543;28;20046;-74
2023/03/31 10:53:43;;;;;;;9.63;3.30;;;20.00;1.00;;;;;;5037616;28;20056;-73
2023/03/31 10:56:38;;;;;;;11.57;4.38;;;20.10;1.00;;;;;;5038368;28;20038;-74
2023/03/31 10:59:23;;;;;;;13.75;4.82;;;20.30;1.00;;;;;;5038525;28;20052;-76
2023/03/31 11:02:08;;;;;;;12.48;5.10;;;20.50;1.00;;;;;;5034719;28;20092;-74
2023/03/31 11:04:52;;;;;;;9.90;3.58;;;20.60;1.00;;;;;;5031839;28;20405;-75
2023/03/31 11:07:36;;;;;;;11.15;5.88;;;20.60;1.00;;;;;;5036518;28;20034;-74
2023/03/31 11:10:21;;;;;;;6.05;3.00;;;20.60;1.00;;;;;;5035191;28;20057;-73
2023/03/31 11:12:56;;;;;;;6.97;2.83;;;20.80;1.00;;;;;;5040512;28;20064;-75
2023/03/31 11:15:30;;;;;;;7.75;3.35;;;20.80;1.00;;;;;;5040039;28;20063;-76
2023/03/31 11:18:13;;;;;;;8.18;4.03;;;20.70;1.00;;;;;;5035509;28;20066;-75
2023/03/31 11:20:53;;;;;;;23.13;15.77;;;20.50;1.00;;;;;;5030210;28;20049;-74
2023/03/31 11:23:27;;;;;;;14.48;8.10;;;20.40;1.00;;;;;;5025283;28;20050;-76
2023/03/31 11:26:02;;;;;;;6.40;2.22;;;20.60;1.00;;;;;;5026565;28;20061;-76
2023/03/31 11:28:53;;;;;;;7.75;4.00;;;20.70;1.00;;;;;;5026070;28;20037;-75
2023/03/31 11:31:37;;;;;;;11.23;5.88;;;20.80;1.00;;;;;;5024675;28;20054;-74
2023/03/31 11:34:21;;;;;;;8.93;3.75;;;20.90;1.00;;;;;;5021512;28;20034;-75
2023/03/31 11:37:12;;;;;;;11.60;4.20;;;21.00;1.00;;;;;;5031389;28;20041;-75
2023/03/31 11:39:48;;;;;;;14.73;5.40;;;21.00;1.00;;;;;;5047731;28;20071;-73
2023/03/31 11:42:20;;;;;;;5.60;2.25;;;21.00;1.00;;;;;;5049362;28;20037;-73
2023/03/31 11:44:54;;;;;;;8.32;3.67;;;21.10;1.00;;;;;;5047816;28;20037;-76
2023/03/31 11:47:26;;;;;;;9.82;4.13;;;21.10;1.00;;;;;;5022155;28;20045;-74
2023/03/31 11:49:55;;;;;;;6.88;2.88;;;21.20;1.00;;;;;;5018316;28;20060;-73
2023/03/31 11:52:29;;;;;;;16.92;3.45;;;21.20;1.00;;;;;;5017677;28;20126;-75
2023/03/31 11:55:00;;;;;;;6.82;2.53;;;21.30;1.00;;;;;;5021821;28;20065;-73
2023/03/31 11:57:33;;;;;;;8.43;5.47;;;21.30;1.00;;;;;;5021319;28;20091;-75
2023/03/31 12:00:10;;;;;;;7.90;3.75;;;21.20;1.00;;;;;;5018579;28;20067;-74
2023/03/31 12:02:45;;;;;;;9.07;3.58;;;21.20;1.00;;;;;;5024851;28;20135;-73
2023/03/31 12:05:15;;;;;;;11.23;3.65;;;21.30;1.00;;;;;;5019139;28;20429;-74
2023/03/31 12:07:48;;;;;;;8.52;3.97;;;21.30;1.00;;;;;;5022509;28;20049;-74
2023/03/31 12:10:20;;;;;;;8.90;4.18;;;21.50;1.00;;;;;;5025198;28;20105;-75
2023/03/31 12:12:53;;;;;;;11.32;3.80;;;21.50;1.00;;;;;;5026464;28;20099;-74
2023/03/31 12:15:25;;;;;;;5.78;3.17;;;21.60;1.00;;;;;;5016192;28;20034;-74
2023/03/31 12:17:59;;;;;;;6.82;3.08;;;21.60;1.00;;;;;;5031013;28;20049;-73
2023/03/31 12:20:33;;;;;;;6.45;3.30;;;21.50;1.00;;;;;;5032854;28;20041;-73
2023/03/31 12:23:04;;;;;;;7.45;2.58;;;21.50;1.00;;;;;;5031929;28;20037;-76
2023/03/31 12:25:51;;;;;;;7.10;2.67;;;21.50;1.00;;;;;;5032085;28;20160;-74
2023/03/31 12:28:20;;;;;;;9.75;3.67;;;21.40;1.00;;;;;;5035574;28;20200;-73
2023/03/31 12:30:50;;;;;;;7.03;2.63;;;21.30;1.00;;;;;;5028795;28;20053;-74
2023/03/31 12:33:23;;;;;;;7.82;2.97;;;21.40;1.00;;;;;;5028580;28;20045;-74
2023/03/31 12:36:14;;;;;;;10.98;4.20;;;21.40;1.00;;;;;;5029769;28;20041;-74
2023/03/31 12:38:54;;;;;;;6.25;3.22;;;21.50;1.00;;;;;;5037282;28;20128;-75
2023/03/31 12:41:28;;;;;;;8.65;3.42;;;21.50;1.00;;;;;;5048787;28;20075;-73
2023/03/31 12:44:37;;;;;;;8.65;3.33;;;21.50;1.00;;;;;;5050052;28;20089;-74
2023/03/31 12:47:23;;;;;;;6.80;3.03;;;21.50;1.00;;;;;;5014852;28;20056;-74
2023/03/31 12:50:09;;;;;;;8.10;3.35;;;21.50;1.00;;;;;;5048495;28;20033;-73
2023/03/31 12:52:48;;;;;;;7.63;4.05;;;21.50;1.00;;;;;;5049575;28;20037;-74
2023/03/31 12:55:31;;;;;;;9.00;4.38;;;21.70;1.00;;;;;;5045492;28;20045;-75
2023/03/31 12:58:36;;;;;;;8.30;3.08;;;21.80;1.00;;;;;;5050725;28;20064;-74
2023/03/31 13:01:06;;;;;;;6.72;3.17;;;21.90;1.00;;;;;;5049887;28;20045;-75
2023/03/31 13:03:54;;;;;;;9.07;3.58;;;22.00;1.00;;;;;;5047305;28;20041;-76
2023/03/31 13:06:58;;;;;;;9.15;3.70;;;22.10;1.00;;;;;;5048615;28;20067;-74
2023/03/31 13:09:50;;;;;;;11.02;4.57;;;22.10;1.00;;;;;;5049477;28;20068;-74
2023/03/31 13:12:21;;;;;;;9.10;3.60;;;22.10;1.00;;;;;;5043670;28;20071;-76